sensor_id;sensor_type;location;lat;lon;timestamp;pressure;altitude;pressure_sealevel;temperature;humidity
75923;BME280;64602;47.542;19.090;2023-06-01T05:07:01;100520.19;;;16.62;66.45
75923;BME280;64602;47.542;19.090;2023-06-01T05:12:04;100505.56;;;16.72;65.34
75923;BME280;64602;47.542;19.090;2023-06-01T05:17:07;100521.00;;;16.92;65.69
75923;BME280;64602;47.542;19.090;2023-06-01T05:22:10;100513.81;;;17.20;67.47
75923;BME280;64602;47.542;19.090;2023-06-01T05:27:13;100519.78;;;17.46;64.60
75923;BME280;64602;47.542;19.090;2023-06-01T05:32:16;100520.84;;;17.69;63.76
75923;BME280;64602;47.542;19.090;2023-06-01T05:37:18;100531.53;;;17.70;62.60
75923;BME280;64602;47.542;19.090;2023-06-01T05:42:20;100516.75;;;17.66;61.97
75923;BME280;64602;47.542;19.090;2023-06-01T05:47:22;100506.81;;;17.70;61.87
75923;BME280;64602;47.542;19.090;2023-06-01T05:52:24;100515.97;;;17.85;60.81
75923;BME280;64602;47.542;19.090;2023-06-01T05:57:26;100514.56;;;18.06;61.07
75923;BME280;64602;47.542;19.090;2023-06-01T06:02:29;100510.94;;;18.25;61.08
75923;BME280;64602;47.542;19.090;2023-06-01T06:07:31;100507.44;;;18.52;60.15
75923;BME280;64602;47.542;19.090;2023-06-01T06:12:34;100509.03;;;18.72;59.51
75923;BME280;64602;47.542;19.090;2023-06-01T06:17:36;100506.53;;;18.89;58.97
75923;BME280;64602;47.542;19.090;2023-06-01T06:22:38;100519.66;;;19.06;56.98
75923;BME280;64602;47.542;19.090;2023-06-01T06:27:40;100512.00;;;19.17;53.73
75923;BME280;64602;47.542;19.090;2023-06-01T06:32:42;100514.34;;;19.37;51.84
75923;BME280;64602;47.542;19.090;2023-06-01T06:37:45;100514.81;;;19.53;50.94
75923;BME280;64602;47.542;19.090;2023-06-01T06:42:47;100514.41;;;19.74;50.82
75923;BME280;64602;47.542;19.090;2023-06-01T06:47:49;100511.59;;;19.88;50.10
75923;BME280;64602;47.542;19.090;2023-06-01T06:52:51;100509.59;;;20.02;48.58
75923;BME280;64602;47.542;19.090;2023-06-01T06:57:54;100495.25;;;20.14;47.75
75923;BME280;64602;47.542;19.090;2023-06-01T07:02:56;100505.47;;;20.36;47.58
75923;BME280;64602;47.542;19.090;2023-06-01T07:08:00;100516.91;;;20.52;45.67
75923;BME280;64602;47.542;19.090;2023-06-01T07:13:02;100495.56;;;20.57;45.20
75923;BME280;64602;47.542;19.090;2023-06-01T07:18:05;100501.34;;;20.78;44.25
75923;BME280;64602;47.542;19.090;2023-06-01T07:23:08;100502.56;;;21.03;42.36
75923;BME280;64602;47.542;19.090;2023-06-01T07:28:10;100494.31;;;21.12;42.46
75923;BME280;64602;47.542;19.090;2023-06-01T07:33:14;100492.25;;;21.26;41.91
75923;BME280;64602;47.542;19.090;2023-06-01T07:38:17;100501.41;;;21.44;41.15
75923;BME280;64602;47.542;19.090;2023-06-01T07:43:19;100502.22;;;21.62;41.80
75923;BME280;64602;47.542;19.090;2023-06-01T07:48:21;100497.19;;;21.82;41.21
75923;BME280;64602;47.542;19.090;2023-06-01T07:53:23;100496.41;;;21.90;40.42
75923;BME280;64602;47.542;19.090;2023-06-01T07:58:27;100498.66;;;22.14;40.90
75923;BME280;64602;47.542;19.090;2023-06-01T08:03:29;100503.34;;;22.39;40.87
75923;BME280;64602;47.542;19.090;2023-06-01T08:08:35;100493.22;;;22.52;40.91
75923;BME280;64602;47.542;19.090;2023-06-01T08:13:38;100474.13;;;22.68;39.70
75923;BME280;64602;47.542;19.090;2023-06-01T08:18:40;100474.75;;;22.74;38.09
75923;BME280;64602;47.542;19.090;2023-06-01T08:23:42;100477.28;;;22.96;38.36
75923;BME280;64602;47.542;19.090;2023-06-01T08:28:45;100471.47;;;23.19;38.62
75923;BME280;64602;47.542;19.090;2023-06-01T08:33:53;100474.94;;;23.58;38.85
75923;BME280;64602;47.542;19.090;2023-06-01T08:38:56;100480.00;;;23.98;39.32
75923;BME280;64602;47.542;19.090;2023-06-01T08:44:02;100470.94;;;24.09;37.28
75923;BME280;64602;47.542;19.090;2023-06-01T08:49:06;100461.50;;;24.23;36.73
75923;BME280;64602;47.542;19.090;2023-06-01T08:54:09;100473.09;;;24.25;35.89
75923;BME280;64602;47.542;19.090;2023-06-01T08:59:12;100461.84;;;24.67;36.74
75923;BME280;64602;47.542;19.090;2023-06-01T09:04:15;100471.69;;;25.13;36.71
75923;BME280;64602;47.542;19.090;2023-06-01T09:09:17;100457.66;;;25.47;36.57
75923;BME280;64602;47.542;19.090;2023-06-01T09:14:21;100465.84;;;25.96;37.21
75923;BME280;64602;47.542;19.090;2023-06-01T09:19:24;100465.88;;;25.84;34.34
75923;BME280;64602;47.542;19.090;2023-06-01T09:24:26;100439.69;;;25.56;33.31
75923;BME280;64602;47.542;19.090;2023-06-01T09:29:28;100456.44;;;26.00;32.98
75923;BME280;64602;47.542;19.090;2023-06-01T09:34:31;100436.28;;;26.19;32.93
75923;BME280;64602;47.542;19.090;2023-06-01T09:39:33;100449.09;;;26.68;33.03
75923;BME280;64602;47.542;19.090;2023-06-01T09:44:38;100438.91;;;26.44;30.94
75923;BME280;64602;47.542;19.090;2023-06-01T09:49:43;100442.53;;;26.76;31.42
75923;BME280;64602;47.542;19.090;2023-06-01T09:54:47;100447.53;;;27.38;30.34
75923;BME280;64602;47.542;19.090;2023-06-01T09:59:50;100446.78;;;27.05;31.03
75923;BME280;64602;47.542;19.090;2023-06-01T10:04:54;100439.06;;;27.89;31.53
75923;BME280;64602;47.542;19.090;2023-06-01T10:10:03;100423.47;;;27.84;30.32
75923;BME280;64602;47.542;19.090;2023-06-01T10:15:06;100428.53;;;28.44;29.70
75923;BME280;64602;47.542;19.090;2023-06-01T10:20:33;100410.94;;;28.90;29.94
75923;BME280;64602;47.542;19.090;2023-06-01T10:25:39;100422.03;;;29.39;29.62
75923;BME280;64602;47.542;19.090;2023-06-01T10:30:45;100408.69;;;28.99;28.57
75923;BME280;64602;47.542;19.090;2023-06-01T10:40:52;100404.28;;;29.58;29.10
75923;BME280;64602;47.542;19.090;2023-06-01T10:45:54;100396.06;;;29.69;28.56
75923;BME280;64602;47.542;19.090;2023-06-01T10:51:16;100400.53;;;29.44;28.73
75923;BME280;64602;47.542;19.090;2023-06-01T10:56:26;100398.34;;;29.97;28.15
75923;BME280;64602;47.542;19.090;2023-06-01T11:01:29;100389.03;;;30.23;28.27
75923;BME280;64602;47.542;19.090;2023-06-01T11:06:33;100384.00;;;30.40;28.01
75923;BME280;64602;47.542;19.090;2023-06-01T11:17:26;100372.50;;;29.70;28.69
75923;BME280;64602;47.542;19.090;2023-06-01T11:22:36;100370.38;;;29.97;28.87
75923;BME280;64602;47.542;19.090;2023-06-01T11:27:43;100353.75;;;29.40;28.94
75923;BME280;64602;47.542;19.090;2023-06-01T11:32:46;100336.09;;;28.49;31.08
75923;BME280;64602;47.542;19.090;2023-06-01T11:37:54;100328.44;;;28.69;31.36
75923;BME280;64602;47.542;19.090;2023-06-01T11:42:57;100339.78;;;29.10;29.94
75923;BME280;64602;47.542;19.090;2023-06-01T11:48:09;100328.59;;;29.10;29.58
75923;BME280;64602;47.542;19.090;2023-06-01T11:53:11;100326.69;;;29.48;29.07
75923;BME280;64602;47.542;19.090;2023-06-01T11:58:25;100314.53;;;29.67;28.98
75923;BME280;64602;47.542;19.090;2023-06-01T12:03:28;100318.72;;;29.88;28.87
75923;BME280;64602;47.542;19.090;2023-06-01T12:08:33;100317.75;;;30.14;28.77
75923;BME280;64602;47.542;19.090;2023-06-01T12:13:35;100294.44;;;30.47;28.07
75923;BME280;64602;47.542;19.090;2023-06-01T12:18:37;100286.97;;;30.73;27.47
75923;BME280;64602;47.542;19.090;2023-06-01T12:23:39;100288.41;;;30.45;27.88
75923;BME280;64602;47.542;19.090;2023-06-01T12:28:50;100285.25;;;30.50;27.64
75923;BME280;64602;47.542;19.090;2023-06-01T12:34:00;100271.72;;;30.63;27.18
75923;BME280;64602;47.542;19.090;2023-06-01T12:39:04;100271.88;;;30.92;27.34
75923;BME280;64602;47.542;19.090;2023-06-01T12:44:07;100253.00;;;29.67;28.75
75923;BME280;64602;47.542;19.090;2023-06-01T12:49:15;100259.56;;;29.11;29.07
75923;BME280;64602;47.542;19.090;2023-06-01T12:54:21;100251.53;;;29.43;28.62
75923;BME280;64602;47.542;19.090;2023-06-01T12:59:23;100245.00;;;30.17;28.35
75923;BME280;64602;47.542;19.090;2023-06-01T13:04:25;100234.41;;;30.48;28.12
75923;BME280;64602;47.542;19.090;2023-06-01T13:09:28;100223.50;;;30.25;28.53
75923;BME280;64602;47.542;19.090;2023-06-01T13:14:30;100232.31;;;31.11;27.29
75923;BME280;64602;47.542;19.090;2023-06-01T13:19:32;100226.03;;;31.54;26.88
75923;BME280;64602;47.542;19.090;2023-06-01T13:24:35;100230.84;;;32.25;26.57
75923;BME280;64602;47.542;19.090;2023-06-01T13:29:54;100221.94;;;32.55;25.83
75923;BME280;64602;47.542;19.090;2023-06-01T13:34:56;100210.25;;;32.67;24.69
75923;BME280;64602;47.542;19.090;2023-06-01T13:39:58;100201.78;;;32.78;24.15
75923;BME280;64602;47.542;19.090;2023-06-01T13:45:01;100201.12;;;32.27;24.72
75923;BME280;64602;47.542;19.090;2023-06-01T13:50:03;100196.28;;;32.53;24.67
75923;BME280;64602;47.542;19.090;2023-06-01T13:55:07;100178.91;;;32.80;24.16
75923;BME280;64602;47.542;19.090;2023-06-01T14:00:10;100192.47;;;32.99;23.93
75923;BME280;64602;47.542;19.090;2023-06-01T14:05:12;100184.69;;;33.25;23.88
75923;BME280;64602;47.542;19.090;2023-06-01T14:10:26;100174.75;;;33.06;24.63
75923;BME280;64602;47.542;19.090;2023-06-01T14:15:30;100169.72;;;32.65;25.59
75923;BME280;64602;47.542;19.090;2023-06-01T14:20:32;100158.25;;;33.15;25.42
75923;BME280;64602;47.542;19.090;2023-06-01T14:25:36;100151.12;;;32.92;25.33
75923;BME280;64602;47.542;19.090;2023-06-01T14:30:39;100146.66;;;33.02;25.22
75923;BME280;64602;47.542;19.090;2023-06-01T14:35:42;100139.97;;;32.74;25.25
75923;BME280;64602;47.542;19.090;2023-06-01T14:40:44;100130.19;;;31.26;27.00
75923;BME280;64602;47.542;19.090;2023-06-01T14:45:46;100130.41;;;30.53;28.39
75923;BME280;64602;47.542;19.090;2023-06-01T14:50:49;100127.41;;;31.26;27.47
75923;BME280;64602;47.542;19.090;2023-06-01T14:55:51;100127.00;;;31.85;27.50
75923;BME280;64602;47.542;19.090;2023-06-01T15:00:53;100116.97;;;32.09;27.16
75923;BME280;64602;47.542;19.090;2023-06-01T15:05:57;100111.75;;;32.08;27.41
75923;BME280;64602;47.542;19.090;2023-06-01T15:10:59;100111.37;;;31.84;27.35
75923;BME280;64602;47.542;19.090;2023-06-01T15:16:02;100090.59;;;31.49;27.62
75923;BME280;64602;47.542;19.090;2023-06-01T15:21:04;100101.78;;;31.67;27.48
75923;BME280;64602;47.542;19.090;2023-06-01T15:26:06;100090.97;;;31.55;27.47
75923;BME280;64602;47.542;19.090;2023-06-01T15:31:11;100086.53;;;31.11;28.32
75923;BME280;64602;47.542;19.090;2023-06-01T15:36:13;100088.44;;;30.67;28.58
75923;BME280;64602;47.542;19.090;2023-06-01T15:41:15;100080.47;;;30.66;29.08
75923;BME280;64602;47.542;19.090;2023-06-01T15:46:17;100080.75;;;30.36;29.46
75923;BME280;64602;47.542;19.090;2023-06-01T15:51:20;100074.25;;;30.14;30.13
75923;BME280;64602;47.542;19.090;2023-06-01T15:56:22;100068.06;;;29.79;30.30
75923;BME280;64602;47.542;19.090;2023-06-01T16:01:24;100068.84;;;29.76;30.55
75923;BME280;64602;47.542;19.090;2023-06-01T16:06:29;100059.72;;;29.28;30.99
75923;BME280;64602;47.542;19.090;2023-06-01T16:11:33;100054.44;;;28.78;32.11
75923;BME280;64602;47.542;19.090;2023-06-01T16:16:35;100047.00;;;28.22;32.77
75923;BME280;64602;47.542;19.090;2023-06-01T16:21:37;100051.84;;;27.95;33.62
75923;BME280;64602;47.542;19.090;2023-06-01T16:26:40;100050.22;;;27.67;34.05
75923;BME280;64602;47.542;19.090;2023-06-01T16:31:42;100042.38;;;27.46;34.24
75923;BME280;64602;47.542;19.090;2023-06-01T16:36:44;100043.94;;;27.43;34.09
75923;BME280;64602;47.542;19.090;2023-06-01T16:41:47;100029.38;;;27.31;33.92
75923;BME280;64602;47.542;19.090;2023-06-01T16:46:49;100028.16;;;27.28;34.19
75923;BME280;64602;47.542;19.090;2023-06-01T16:51:51;100014.69;;;27.07;33.92
75923;BME280;64602;47.542;19.090;2023-06-01T16:56:53;100028.16;;;27.05;34.60
75923;BME280;64602;47.542;19.090;2023-06-01T17:01:56;100013.63;;;26.92;35.37
75923;BME280;64602;47.542;19.090;2023-06-01T17:06:58;100024.56;;;26.81;35.68
75923;BME280;64602;47.542;19.090;2023-06-01T17:12:00;100016.28;;;26.62;35.47
75923;BME280;64602;47.542;19.090;2023-06-01T17:17:03;100014.16;;;26.55;35.99
75923;BME280;64602;47.542;19.090;2023-06-01T17:22:06;100015.97;;;26.48;36.51
75923;BME280;64602;47.542;19.090;2023-06-01T17:27:08;100008.09;;;26.30;36.45
75923;BME280;64602;47.542;19.090;2023-06-01T17:32:10;100021.81;;;26.19;36.66
75923;BME280;64602;47.542;19.090;2023-06-01T17:37:13;100015.56;;;26.07;36.70
75923;BME280;64602;47.542;19.090;2023-06-01T17:42:15;100009.72;;;25.92;37.14
75923;BME280;64602;47.542;19.090;2023-06-01T17:47:17;100008.50;;;25.74;37.40
75923;BME280;64602;47.542;19.090;2023-06-01T17:52:21;100006.94;;;25.57;37.59
75923;BME280;64602;47.542;19.090;2023-06-01T17:57:24;100015.91;;;25.50;37.67
75923;BME280;64602;47.542;19.090;2023-06-01T18:02:26;100015.25;;;25.37;37.94
75923;BME280;64602;47.542;19.090;2023-06-01T18:07:28;100009.63;;;25.18;38.32
75923;BME280;64602;47.542;19.090;2023-06-01T18:12:30;100013.25;;;25.06;38.88
75923;BME280;64602;47.542;19.090;2023-06-01T18:17:36;100015.78;;;24.95;39.43
75923;BME280;64602;47.542;19.090;2023-06-01T18:22:38;100022.22;;;24.84;40.02
75923;BME280;64602;47.542;19.090;2023-06-01T18:27:40;100009.59;;;24.55;40.80
75923;BME280;64602;47.542;19.090;2023-06-01T18:32:43;100016.75;;;24.43;41.54
75923;BME280;64602;47.542;19.090;2023-06-01T18:37:45;100022.97;;;24.24;42.29
75923;BME280;64602;47.542;19.090;2023-06-01T18:42:48;100031.81;;;24.14;43.10
75923;BME280;64602;47.542;19.090;2023-06-01T18:47:50;100034.63;;;24.02;43.59
75923;BME280;64602;47.542;19.090;2023-06-01T18:52:53;100042.03;;;23.85;44.24
75923;BME280;64602;47.542;19.090;2023-06-01T18:57:55;100048.41;;;23.74;45.10
75923;BME280;64602;47.542;19.090;2023-06-01T19:02:57;100044.63;;;23.54;45.68
75923;BME280;64602;47.542;19.090;2023-06-01T19:07:59;100053.16;;;23.49;46.10
75923;BME280;64602;47.542;19.090;2023-06-01T19:13:02;100067.94;;;23.40;46.79
75923;BME280;64602;47.542;19.090;2023-06-01T19:18:06;100073.03;;;23.26;47.46
75923;BME280;64602;47.542;19.090;2023-06-01T19:23:09;100070.09;;;23.10;48.04
75923;BME280;64602;47.542;19.090;2023-06-01T19:28:12;100073.06;;;22.93;48.92
75923;BME280;64602;47.542;19.090;2023-06-01T19:33:17;100052.72;;;22.76;48.90
75923;BME280;64602;47.542;19.090;2023-06-01T19:38:20;100065.97;;;22.71;48.98
75923;BME280;64602;47.542;19.090;2023-06-01T19:43:38;100062.38;;;22.58;51.57
75923;BME280;64602;47.542;19.090;2023-06-01T19:48:42;100070.31;;;22.59;51.21
75923;BME280;64602;47.542;19.090;2023-06-01T19:53:49;100076.84;;;22.55;52.01
75923;BME280;64602;47.542;19.090;2023-06-01T19:58:53;100062.66;;;22.44;52.81
75923;BME280;64602;47.542;19.090;2023-06-01T20:03:56;100063.87;;;22.34;53.76
75923;BME280;64602;47.542;19.090;2023-06-01T20:14:10;100075.41;;;22.15;53.87
75923;BME280;64602;47.542;19.090;2023-06-01T20:19:14;100069.31;;;22.01;54.12
75923;BME280;64602;47.542;19.090;2023-06-01T20:24:17;100059.88;;;21.81;54.24
75923;BME280;64602;47.542;19.090;2023-06-01T20:29:19;100058.34;;;21.71;54.28
